createdAt,value
2022-10-05T00:03:42.904Z,1.40
2022-10-05T00:08:44.869Z,0.80
2022-10-05T00:13:47.238Z,1.10
2022-10-05T00:18:51.660Z,0.73
2022-10-05T00:23:57.123Z,0.90
2022-10-05T00:28:59.073Z,0.57
2022-10-05T00:34:00.890Z,0.50
2022-10-05T00:39:03.661Z,0.95
2022-10-05T00:44:18.599Z,0.65
2022-10-05T00:49:26.474Z,0.57
2022-10-05T01:00:03.066Z,0.70
2022-10-05T01:05:27.665Z,0.70
2022-10-05T01:10:38.687Z,0.60
2022-10-05T01:15:43.697Z,0.40
2022-10-05T01:21:06.800Z,0.68
2022-10-05T01:26:29.721Z,0.60
2022-10-05T01:32:00.833Z,0.57
2022-10-05T01:37:15.144Z,0.70
2022-10-05T01:42:40.267Z,0.60
2022-10-05T01:47:49.926Z,0.50
2022-10-05T01:53:13.149Z,0.57
2022-10-05T01:58:45.966Z,0.47
2022-10-05T02:03:54.516Z,0.60
2022-10-05T02:09:01.596Z,0.40
2022-10-05T02:14:12.679Z,0.70
2022-10-05T02:19:33.252Z,0.50
2022-10-05T02:24:41.070Z,0.70
2022-10-05T02:34:48.014Z,0.80
2022-10-05T02:40:06.722Z,0.60
2022-10-05T02:45:12.085Z,0.80
2022-10-05T02:50:27.328Z,0.55
2022-10-05T02:55:49.110Z,0.57
2022-10-05T03:01:10.580Z,0.70
2022-10-05T03:06:26.854Z,0.80
2022-10-05T03:11:49.283Z,0.77
2022-10-05T03:17:16.145Z,0.90
2022-10-05T03:22:48.843Z,0.63
2022-10-05T03:28:06.102Z,0.73
2022-10-05T03:33:35.193Z,0.88
2022-10-05T03:38:37.244Z,0.57
2022-10-05T03:44:01.377Z,0.88
2022-10-05T03:49:29.747Z,0.80
2022-10-05T03:55:01.817Z,0.70
2022-10-05T04:00:18.549Z,1.10
2022-10-05T04:05:56.681Z,1.10
2022-10-05T04:11:06.195Z,0.90
2022-10-05T04:16:13.485Z,0.90
2022-10-05T04:26:37.697Z,1.17
2022-10-05T04:31:55.344Z,1.50
2022-10-05T04:37:06.563Z,2.60
2022-10-05T04:42:09.504Z,1.73
2022-10-05T04:47:35.487Z,2.60
2022-10-05T04:53:02.562Z,2.50
2022-10-05T04:58:14.314Z,2.17
2022-10-05T05:03:38.945Z,2.45
2022-10-05T05:09:07.268Z,1.58
2022-10-05T05:14:37.509Z,1.23
2022-10-05T05:19:44.973Z,1.88
2022-10-05T05:25:04.585Z,1.80
2022-10-05T05:30:43.881Z,1.10
2022-10-05T05:36:06.221Z,1.08
2022-10-05T05:41:30.718Z,0.98
2022-10-05T05:46:58.343Z,1.40
2022-10-05T05:52:00.193Z,1.20
2022-10-05T05:57:20.016Z,1.25
2022-10-05T06:02:28.604Z,1.60
2022-10-05T06:07:31.909Z,1.00
2022-10-05T06:12:43.450Z,1.52
2022-10-05T06:17:50.364Z,1.40
2022-10-05T06:22:54.467Z,1.60
2022-10-05T06:28:09.557Z,1.60
2022-10-05T06:33:33.224Z,1.98
2022-10-05T06:39:01.445Z,1.63
2022-10-05T06:44:16.343Z,1.13
2022-10-05T06:49:30.272Z,1.58
2022-10-05T06:55:13.887Z,1.50
2022-10-05T07:00:20.283Z,1.77
2022-10-05T07:05:34.969Z,0.85
2022-10-05T07:11:03.535Z,0.80
2022-10-05T07:16:23.059Z,0.90
2022-10-05T07:21:55.704Z,0.77
2022-10-05T07:27:21.201Z,0.90
2022-10-05T07:32:55.594Z,0.70
2022-10-05T07:38:05.689Z,0.73
2022-10-05T07:43:57.945Z,0.80
2022-10-05T07:49:12.654Z,0.80
2022-10-05T07:54:32.847Z,1.00
2022-10-05T07:59:48.661Z,0.85
2022-10-05T08:04:57.919Z,0.70
2022-10-05T08:10:20.767Z,0.85
2022-10-05T08:15:43.168Z,0.93
2022-10-05T08:20:50.384Z,1.08
2022-10-05T08:26:16.200Z,0.87
2022-10-05T08:31:30.179Z,0.95
2022-10-05T08:37:18.322Z,0.93
2022-10-05T08:42:38.388Z,1.20
2022-10-05T08:48:18.929Z,1.23
2022-10-05T08:53:25.521Z,1.40
2022-10-05T08:58:27.653Z,2.42
2022-10-05T09:03:50.375Z,1.60
2022-10-05T09:09:17.573Z,2.00
2022-10-05T09:14:37.775Z,2.03
2022-10-05T09:19:52.229Z,2.05
2022-10-05T09:24:59.198Z,2.50
2022-10-05T09:30:27.316Z,2.13
2022-10-05T09:35:53.514Z,2.10
2022-10-05T09:41:13.677Z,2.22
2022-10-05T09:46:37.288Z,1.88
2022-10-05T09:51:51.622Z,1.90
2022-10-05T09:57:15.211Z,2.47
2022-10-05T10:02:17.576Z,1.77
2022-10-05T10:07:55.044Z,1.98
2022-10-05T10:13:11.830Z,1.90
2022-10-05T10:18:40.527Z,1.85
2022-10-05T10:24:00.312Z,1.90
2022-10-05T10:34:54.696Z,2.05
2022-10-05T10:40:27.784Z,2.38
2022-10-05T10:46:06.579Z,2.15
2022-10-05T10:51:19.538Z,1.98
2022-10-05T10:56:27.036Z,2.25
2022-10-05T11:01:59.830Z,1.30
2022-10-05T11:07:07.526Z,1.67
2022-10-05T11:12:37.182Z,1.77
2022-10-05T11:17:38.943Z,1.88
2022-10-05T11:23:05.271Z,1.35
2022-10-05T11:28:18.959Z,1.52
2022-10-05T11:33:53.142Z,1.65
2022-10-05T11:39:14.658Z,1.45
2022-10-05T11:44:38.788Z,1.52
2022-10-05T11:50:09.713Z,1.38
2022-10-05T11:55:23.761Z,1.75
2022-10-05T12:00:34.643Z,1.60
2022-10-05T12:06:44.260Z,1.10
2022-10-05T12:11:57.881Z,0.88
2022-10-05T12:17:34.543Z,1.00
2022-10-05T12:22:51.263Z,1.27
2022-10-05T12:27:58.781Z,0.90
2022-10-05T12:33:13.266Z,0.82
2022-10-05T12:38:39.846Z,1.20
2022-10-05T12:44:05.606Z,1.15
2022-10-05T12:50:01.270Z,1.63
2022-10-05T12:55:17.258Z,1.50
2022-10-05T13:00:22.984Z,1.20
2022-10-05T13:05:52.848Z,1.42
2022-10-05T13:11:06.453Z,0.93
2022-10-05T13:16:33.293Z,1.27
2022-10-05T13:21:50.133Z,1.05
2022-10-05T13:27:15.938Z,1.10
2022-10-05T13:32:27.635Z,1.27
2022-10-05T13:37:41.256Z,1.17
2022-10-05T13:43:04.167Z,1.10
2022-10-05T13:48:41.063Z,1.13
2022-10-05T13:53:53.485Z,1.10
2022-10-05T13:59:12.700Z,0.90
2022-10-05T14:04:18.243Z,1.10
2022-10-05T14:09:19.982Z,1.05
2022-10-05T14:14:28.448Z,1.20
2022-10-05T14:19:47.529Z,1.30
2022-10-05T14:25:13.927Z,1.20
2022-10-05T14:30:15.917Z,1.10
2022-10-05T14:35:22.999Z,1.10
2022-10-05T14:40:32.403Z,0.95
2022-10-05T14:45:35.658Z,1.42
2022-10-05T14:50:55.147Z,1.15
2022-10-05T14:56:12.606Z,1.17
2022-10-05T15:01:20.723Z,1.42
2022-10-05T15:06:37.924Z,1.08
2022-10-05T15:11:51.286Z,1.30
2022-10-05T15:17:03.325Z,1.42
2022-10-05T15:22:18.881Z,1.23
2022-10-05T15:27:26.314Z,1.60
2022-10-05T15:32:34.135Z,1.70
2022-10-05T15:37:47.711Z,1.70
2022-10-05T15:42:55.324Z,1.67
2022-10-05T15:53:34.386Z,2.00
2022-10-05T15:58:54.592Z,1.67
2022-10-05T16:04:11.855Z,2.17
2022-10-05T16:09:16.454Z,2.17
2022-10-05T16:14:36.227Z,1.85
2022-10-05T16:20:08.727Z,2.17
2022-10-05T16:25:22.305Z,2.70
2022-10-05T16:30:24.847Z,1.73
2022-10-05T16:35:40.004Z,1.77
2022-10-05T16:41:09.896Z,2.20
2022-10-05T16:46:36.787Z,6.22
2022-10-05T16:52:01.906Z,4.20
2022-10-05T16:57:28.517Z,2.65
2022-10-05T17:02:50.334Z,2.00
2022-10-05T17:08:13.201Z,1.90
2022-10-05T17:13:29.867Z,1.98
2022-10-05T17:18:56.904Z,2.20
2022-10-05T17:24:11.744Z,2.60
2022-10-05T17:29:28.088Z,1.80
2022-10-05T17:34:34.917Z,1.83
2022-10-05T17:39:50.408Z,2.23
2022-10-05T17:44:55.509Z,2.67
2022-10-05T17:50:18.924Z,3.20
2022-10-05T17:55:38.418Z,2.78
2022-10-05T18:01:00.852Z,2.72
2022-10-05T18:06:25.544Z,1.98
2022-10-05T18:11:39.123Z,2.70
2022-10-05T18:16:59.492Z,2.50
2022-10-05T18:22:16.442Z,2.30
2022-10-05T18:27:54.094Z,1.80
2022-10-05T18:33:13.910Z,2.10
2022-10-05T18:38:46.583Z,1.88
2022-10-05T18:44:15.635Z,1.95
2022-10-05T18:49:32.349Z,1.52
2022-10-05T18:54:43.964Z,1.17
2022-10-05T19:00:01.127Z,1.48
2022-10-05T19:05:47.050Z,1.50
2022-10-05T19:10:50.680Z,1.65
2022-10-05T19:15:52.474Z,1.50
2022-10-05T19:21:06.072Z,1.38
2022-10-05T19:26:16.833Z,1.60
2022-10-05T19:31:43.190Z,1.05
2022-10-05T19:36:54.531Z,1.13
2022-10-05T19:42:34.498Z,1.25
2022-10-05T19:47:42.704Z,1.15
2022-10-05T19:52:49.665Z,1.63
2022-10-05T19:57:59.936Z,1.10
2022-10-05T20:03:29.244Z,1.33
2022-10-05T20:08:40.643Z,1.40
2022-10-05T20:13:57.726Z,1.60
2022-10-05T20:19:18.656Z,1.53
2022-10-05T20:24:25.904Z,1.40
2022-10-05T20:29:29.482Z,1.13
2022-10-05T20:34:34.613Z,1.08
2022-10-05T20:39:36.824Z,1.35
2022-10-05T20:44:38.613Z,1.25
2022-10-05T20:49:41.448Z,1.30
2022-10-05T20:54:43.333Z,1.20
2022-10-05T20:59:45.891Z,1.20
2022-10-05T21:04:47.968Z,1.13
2022-10-05T21:09:51.087Z,1.27
2022-10-05T21:14:52.908Z,2.75
2022-10-05T21:19:54.882Z,0.98
2022-10-05T21:24:56.719Z,1.13
2022-10-05T21:29:58.584Z,1.10
2022-10-05T21:35:00.606Z,0.80
2022-10-05T21:40:02.376Z,0.80
2022-10-05T21:45:04.616Z,1.35
2022-10-05T21:50:08.686Z,1.33
2022-10-05T21:55:11.293Z,1.23
2022-10-05T22:00:16.969Z,1.05
2022-10-05T22:05:18.776Z,0.93
2022-10-05T22:10:20.735Z,1.08
2022-10-05T22:15:22.826Z,1.17
2022-10-05T22:20:25.524Z,1.30
2022-10-05T22:25:27.417Z,1.15
2022-10-05T22:30:29.815Z,1.20
2022-10-05T22:35:37.000Z,1.35
2022-10-05T22:40:38.827Z,1.45
2022-10-05T22:45:40.994Z,1.25
2022-10-05T22:50:46.708Z,1.13
2022-10-05T22:55:48.543Z,1.38
2022-10-05T23:00:58.843Z,1.45
2022-10-05T23:06:04.825Z,1.08
2022-10-05T23:11:28.196Z,1.73
2022-10-05T23:16:30.145Z,1.05
2022-10-05T23:21:32.076Z,1.17
2022-10-05T23:26:34.805Z,1.30
2022-10-05T23:31:37.051Z,1.27
2022-10-05T23:36:38.916Z,1.08
2022-10-05T23:41:40.732Z,1.20
2022-10-05T23:46:42.574Z,1.05
2022-10-05T23:51:45.043Z,1.77
2022-10-05T23:56:46.836Z,1.08
